METAR AND TAF INFORMATION
METAR FOR OIAM
ADDS - METARS form results

(2125 UTC 12 August 2020)
Data provider http://aviationweather.gov/metar/data/
 
METAR text: OIAM 122100Z 30006KT CAVOK 33/12 Q0997
Conditions at: OIAM (BANDAR MAHSHAHR , IR) observed 2100 UTC 12 August 2020
Temperature: 33.0°C (91°F)
Dewpoint: 12.0°C (54°F) [RH = 28%]
Pressure (altimeter): 29.44 inches Hg (997.0 mb)
Winds: from the WNW (300 degrees) at 7 MPH (6 knots; 3.1 m/s)
Visibility: 6 or more miles (10+ km)
Ceiling: ceiling and visibility are OK
Clouds: unknown
Weather: no significant weather observed at this time

 AIRPORT MAP

 RUNWAY INFORMATION
Runway 14 Runway length 8874 ft Runway width 148 ft
Runway elevation 8 ft Runway displaced threshold 0 ft Runway heading 137
Runway 32 Runway length 8874 ft Runway width 148 ft
Runway elevation 8 ft Runway displaced threshold 984 ft Runway heading 317

 AIRPORT FREQUENCIES
Type TWR Name ATIS Frequency 118.65 MHZ

 AIRPORT NEAR NAVIGATION AIDS
Type VOR-DME Name Mahshahr Frequency 115800 KHZ



Copyright @ Zagros Virtual Airline